createdAt,value
2022-11-12T00:00:54.905Z,43.00
2022-11-12T00:03:22.096Z,42.30
2022-11-12T00:05:50.774Z,37.85
2022-11-12T00:08:18.223Z,37.13
2022-11-12T00:10:45.888Z,40.00
2022-11-12T00:13:13.377Z,39.22
2022-11-12T00:15:40.820Z,42.28
2022-11-12T00:18:08.093Z,40.45
2022-11-12T00:20:35.716Z,42.30
2022-11-12T00:23:03.203Z,37.90
2022-11-12T00:25:30.848Z,41.33
2022-11-12T00:28:06.143Z,41.78
2022-11-12T00:30:33.079Z,41.05
2022-11-12T00:33:04.120Z,42.40
2022-11-12T00:35:34.845Z,39.22
2022-11-12T00:38:01.700Z,40.20
2022-11-12T00:40:28.583Z,45.17
2022-11-12T00:42:55.517Z,42.75
2022-11-12T00:45:22.666Z,40.55
2022-11-12T00:47:49.590Z,42.13
2022-11-12T00:50:16.860Z,41.05
2022-11-12T00:52:44.160Z,48.88
2022-11-12T00:55:11.121Z,44.13
2022-11-12T00:57:38.027Z,53.50
2022-11-12T01:00:06.897Z,41.15
2022-11-12T01:02:40.701Z,44.92
2022-11-12T01:05:10.603Z,41.42
2022-11-12T01:07:37.568Z,47.50
2022-11-12T01:10:04.930Z,44.03
2022-11-12T01:12:32.747Z,46.83
2022-11-12T01:14:59.807Z,46.58
2022-11-12T01:17:26.728Z,45.03
2022-11-12T01:19:53.627Z,42.47
2022-11-12T01:22:20.485Z,45.25
2022-11-12T01:24:47.334Z,50.30
2022-11-12T01:27:15.074Z,51.92
2022-11-12T01:29:41.970Z,49.20
2022-11-12T01:32:08.824Z,41.50
2022-11-12T01:34:35.695Z,42.25
2022-11-12T01:37:02.558Z,44.25
2022-11-12T01:39:29.408Z,46.42
2022-11-12T01:41:56.423Z,47.67
2022-11-12T01:44:27.048Z,47.20
2022-11-12T01:47:12.553Z,46.35
2022-11-12T01:49:39.395Z,47.15
2022-11-12T01:52:19.373Z,47.78
2022-11-12T01:54:50.317Z,45.75
2022-11-12T01:57:24.009Z,49.00
2022-11-12T01:59:53.403Z,40.53
2022-11-12T02:02:20.294Z,41.85
2022-11-12T02:04:48.325Z,41.17
2022-11-12T02:07:16.499Z,47.20
2022-11-12T02:09:43.357Z,44.35
2022-11-12T02:12:30.233Z,45.85
2022-11-12T02:14:57.059Z,46.25
2022-11-12T02:17:24.100Z,42.28
2022-11-12T02:19:53.157Z,52.00
2022-11-12T02:22:20.112Z,43.60
2022-11-12T02:24:46.942Z,41.92
2022-11-12T02:27:13.880Z,45.22
2022-11-12T02:29:46.440Z,38.80
2022-11-12T02:32:14.389Z,47.28
2022-11-12T02:34:41.711Z,48.08
2022-11-12T02:37:08.675Z,48.92
2022-11-12T02:39:35.557Z,44.55
2022-11-12T02:42:02.477Z,45.28
2022-11-12T02:44:30.881Z,38.63
2022-11-12T02:46:57.761Z,47.55
2022-11-12T02:49:24.626Z,44.22
2022-11-12T02:51:51.568Z,37.28
2022-11-12T02:54:18.440Z,44.47
2022-11-12T02:56:45.345Z,45.03
2022-11-12T02:59:12.173Z,46.83
2022-11-12T03:01:39.205Z,48.65
2022-11-12T03:04:06.104Z,44.63
2022-11-12T03:06:32.970Z,40.95
2022-11-12T03:08:59.878Z,41.50
2022-11-12T03:11:27.375Z,43.85
2022-11-12T03:13:54.203Z,52.20
2022-11-12T03:16:21.058Z,45.30
2022-11-12T03:18:47.882Z,47.60
2022-11-12T03:21:14.729Z,44.25
2022-11-12T03:23:41.663Z,38.17
2022-11-12T03:26:08.505Z,43.55
2022-11-12T03:28:35.962Z,45.25
2022-11-12T03:31:02.958Z,44.72
2022-11-12T03:33:29.839Z,46.90
2022-11-12T03:35:56.721Z,38.30
2022-11-12T03:38:24.326Z,37.55
2022-11-12T03:40:51.379Z,36.28
2022-11-12T03:43:18.314Z,43.17
2022-11-12T03:45:45.285Z,43.13
2022-11-12T03:48:12.138Z,54.85
2022-11-12T03:50:38.966Z,37.63
2022-11-12T03:53:06.178Z,44.00
2022-11-12T03:55:32.996Z,44.85
2022-11-12T03:57:59.945Z,45.05
2022-11-12T04:00:28.592Z,49.42
2022-11-12T04:02:56.154Z,44.70
2022-11-12T04:05:41.954Z,50.00
2022-11-12T04:08:36.045Z,45.33
2022-11-12T04:11:04.003Z,40.03
2022-11-12T04:13:31.041Z,46.58
2022-11-12T04:16:22.564Z,43.75
2022-11-12T04:19:10.900Z,48.47
2022-11-12T04:21:56.535Z,46.00
2022-11-12T04:24:50.219Z,42.35
2022-11-12T04:30:07.635Z,39.80
2022-11-12T04:32:36.758Z,41.53
2022-11-12T04:35:04.852Z,45.47
2022-11-12T04:37:44.681Z,42.47
2022-11-12T04:40:36.078Z,47.03
2022-11-12T04:43:23.485Z,46.65
2022-11-12T04:45:52.821Z,48.13
2022-11-12T04:48:20.597Z,43.60
2022-11-12T04:51:29.044Z,43.55
2022-11-12T04:53:56.006Z,42.97
2022-11-12T04:56:22.839Z,45.83
2022-11-12T04:58:49.800Z,55.90
2022-11-12T05:01:16.634Z,49.75
2022-11-12T05:03:43.496Z,48.72
2022-11-12T05:06:30.570Z,52.58
2022-11-12T05:08:57.489Z,47.17
2022-11-12T05:11:24.296Z,53.97
2022-11-12T05:13:51.203Z,52.58
2022-11-12T05:16:18.055Z,62.03
2022-11-12T05:18:44.907Z,54.28
2022-11-12T05:21:30.470Z,56.00
2022-11-12T05:23:57.356Z,49.95
2022-11-12T05:26:24.244Z,55.08
2022-11-12T05:28:51.212Z,49.90
2022-11-12T05:31:18.028Z,51.35
2022-11-12T05:33:44.859Z,50.75
2022-11-12T05:36:12.134Z,47.75
2022-11-12T05:38:39.245Z,53.58
2022-11-12T05:41:06.249Z,51.17
2022-11-12T05:43:33.102Z,48.65
2022-11-12T05:45:59.922Z,45.90
2022-11-12T05:48:27.148Z,44.38
2022-11-12T05:53:42.661Z,42.33
2022-11-12T05:56:10.458Z,43.15
2022-11-12T05:58:37.476Z,52.72
2022-11-12T06:01:04.665Z,41.88
2022-11-12T06:03:31.870Z,42.63
2022-11-12T06:05:59.271Z,48.80
2022-11-12T06:08:26.487Z,44.58
2022-11-12T06:10:55.170Z,44.28
2022-11-12T06:13:24.500Z,46.67
2022-11-12T06:15:52.830Z,41.47
2022-11-12T06:18:20.290Z,46.80
2022-11-12T06:21:08.093Z,38.95
2022-11-12T06:23:35.482Z,39.95
2022-11-12T06:26:03.290Z,45.72
2022-11-12T06:28:30.461Z,50.58
2022-11-12T06:30:57.393Z,54.80
2022-11-12T06:33:24.239Z,45.55
2022-11-12T06:35:58.261Z,46.50
2022-11-12T06:38:25.429Z,51.13
2022-11-12T06:40:52.541Z,43.70
2022-11-12T06:43:19.434Z,49.08
2022-11-12T06:45:46.421Z,39.00
2022-11-12T06:48:13.292Z,41.75
2022-11-12T06:50:40.154Z,35.53
2022-11-12T06:53:06.991Z,37.72
2022-11-12T06:55:33.850Z,37.45
2022-11-12T06:58:01.063Z,41.05
2022-11-12T07:00:27.952Z,33.97
2022-11-12T07:02:54.781Z,36.72
2022-11-12T07:05:21.976Z,37.17
2022-11-12T07:07:49.029Z,40.80
2022-11-12T07:10:16.188Z,39.08
2022-11-12T07:12:43.055Z,31.52
2022-11-12T07:15:10.379Z,33.63
2022-11-12T07:17:37.225Z,35.75
2022-11-12T07:20:04.506Z,37.75
2022-11-12T07:22:34.561Z,34.55
2022-11-12T07:25:01.578Z,34.53
2022-11-12T07:27:32.026Z,33.17
2022-11-12T07:29:58.872Z,33.72
2022-11-12T07:32:25.764Z,33.50
2022-11-12T07:34:52.853Z,34.72
2022-11-12T07:37:19.685Z,28.23
2022-11-12T07:39:46.518Z,29.58
2022-11-12T07:42:13.376Z,27.35
2022-11-12T07:44:40.210Z,30.35
2022-11-12T07:47:07.070Z,30.45
2022-11-12T07:49:33.924Z,31.83
2022-11-12T07:52:00.772Z,30.88
2022-11-12T07:54:27.645Z,29.77
2022-11-12T07:56:54.492Z,25.60
2022-11-12T07:59:21.327Z,26.65
2022-11-12T08:01:48.193Z,25.25
2022-11-12T08:04:15.599Z,24.88
2022-11-12T08:06:42.735Z,29.85
2022-11-12T08:09:10.798Z,23.55
2022-11-12T08:11:37.727Z,26.10
2022-11-12T08:14:04.689Z,30.33
2022-11-12T08:16:31.697Z,26.80
2022-11-12T08:18:58.760Z,31.67
2022-11-12T08:21:25.667Z,25.50
2022-11-12T08:23:52.897Z,27.30
2022-11-12T08:26:21.256Z,19.73
2022-11-12T08:28:48.606Z,24.80
2022-11-12T08:31:19.469Z,22.48
2022-11-12T08:33:46.782Z,29.83
2022-11-12T08:36:15.419Z,26.17
2022-11-12T08:38:42.585Z,19.50
2022-11-12T08:41:12.549Z,25.73
2022-11-12T08:43:41.214Z,24.65
2022-11-12T08:46:08.218Z,24.45
2022-11-12T08:48:35.560Z,20.05
2022-11-12T08:51:04.770Z,21.90
2022-11-12T08:53:32.283Z,17.88
2022-11-12T08:55:59.909Z,18.08
2022-11-12T08:58:27.341Z,21.67
2022-11-12T09:00:56.015Z,19.98
2022-11-12T09:03:25.366Z,18.20
2022-11-12T09:05:53.010Z,19.42
2022-11-12T09:08:25.366Z,18.30
2022-11-12T09:10:53.036Z,23.17
2022-11-12T09:13:20.310Z,18.13
2022-11-12T09:15:47.784Z,21.55
2022-11-12T09:18:18.798Z,17.92
2022-11-12T09:20:46.127Z,22.55
2022-11-12T09:23:17.703Z,15.10
2022-11-12T09:25:45.035Z,11.32
2022-11-12T09:28:16.934Z,14.02
2022-11-12T09:30:49.347Z,14.18
2022-11-12T09:33:18.403Z,11.52
2022-11-12T09:35:46.387Z,14.38
2022-11-12T09:38:14.968Z,12.50
2022-11-12T09:41:00.570Z,16.63
2022-11-12T09:43:35.437Z,16.45
2022-11-12T09:46:28.312Z,11.55
2022-11-12T09:49:21.193Z,13.93
2022-11-12T09:51:59.720Z,17.13
2022-11-12T09:54:30.605Z,16.73
2022-11-12T09:56:57.612Z,17.65
2022-11-12T09:59:29.688Z,21.50
2022-11-12T10:01:59.402Z,20.73
2022-11-12T10:04:45.542Z,21.15
2022-11-12T10:07:33.901Z,19.65
2022-11-12T10:10:24.250Z,24.70
2022-11-12T10:13:41.043Z,17.95
2022-11-12T10:16:34.258Z,18.33
2022-11-12T10:19:31.745Z,14.45
2022-11-12T10:22:04.683Z,15.77
2022-11-12T10:24:37.679Z,19.05
2022-11-12T10:27:20.721Z,20.10
2022-11-12T10:30:00.849Z,17.20
2022-11-12T10:32:27.910Z,15.40
2022-11-12T10:34:54.726Z,22.52
2022-11-12T10:37:42.667Z,23.08
2022-11-12T10:40:21.514Z,20.25
2022-11-12T10:43:27.046Z,17.58
2022-11-12T10:46:17.602Z,21.23
2022-11-12T10:48:58.152Z,13.10
2022-11-12T10:51:28.611Z,15.20
2022-11-12T10:53:55.668Z,18.77
2022-11-12T10:56:30.853Z,20.00
2022-11-12T10:59:16.838Z,19.77
2022-11-12T11:01:46.102Z,26.00
2022-11-12T11:04:29.970Z,17.15
2022-11-12T11:07:15.137Z,20.63
2022-11-12T11:09:53.527Z,18.67
2022-11-12T11:12:30.436Z,18.23
2022-11-12T11:15:09.362Z,21.77
2022-11-12T11:17:36.294Z,18.95
2022-11-12T11:20:16.064Z,16.90
2022-11-12T11:22:46.216Z,14.82
2022-11-12T11:25:27.739Z,20.00
2022-11-12T11:28:30.961Z,21.85
2022-11-12T11:31:12.888Z,18.88
2022-11-12T11:33:54.952Z,23.63
2022-11-12T11:36:29.520Z,25.50
2022-11-12T11:39:02.502Z,23.67
2022-11-12T11:41:41.457Z,24.10
2022-11-12T11:44:22.294Z,25.75
2022-11-12T11:47:50.484Z,24.90
2022-11-12T11:50:34.476Z,22.95
2022-11-12T11:53:38.323Z,24.48
2022-11-12T11:56:42.764Z,21.60
2022-11-12T11:59:24.526Z,17.75
2022-11-12T12:02:37.221Z,23.15
2022-11-12T12:05:38.613Z,20.67
2022-11-12T12:08:33.744Z,22.52
2022-11-12T12:11:20.627Z,20.63
2022-11-12T12:14:22.432Z,24.70
2022-11-12T12:17:06.479Z,26.15
2022-11-12T12:19:54.501Z,24.13
2022-11-12T12:22:46.817Z,22.70
2022-11-12T12:25:27.028Z,20.90
2022-11-12T12:28:08.970Z,20.40
2022-11-12T12:30:40.500Z,21.30
2022-11-12T12:33:30.406Z,19.88
2022-11-12T12:36:08.549Z,23.27
2022-11-12T12:38:44.054Z,24.58
2022-11-12T12:41:16.745Z,27.15
2022-11-12T12:43:49.035Z,26.50
2022-11-12T12:46:21.312Z,24.75
2022-11-12T12:48:51.741Z,23.27
2022-11-12T12:51:19.273Z,26.83
2022-11-12T12:53:46.304Z,29.58
2022-11-12T12:56:13.191Z,30.55
2022-11-12T12:58:48.406Z,32.53
2022-11-12T13:01:21.452Z,31.52
2022-11-12T13:06:27.460Z,31.48
2022-11-12T13:09:08.206Z,33.17
2022-11-12T13:11:59.452Z,35.40
2022-11-12T13:14:35.867Z,28.88
2022-11-12T13:17:09.107Z,31.52
2022-11-12T13:22:17.725Z,28.00
2022-11-12T13:25:12.192Z,31.40
2022-11-12T13:27:44.757Z,30.75
2022-11-12T13:30:14.457Z,29.05
2022-11-12T13:32:49.016Z,32.25
2022-11-12T13:35:29.341Z,31.17
2022-11-12T13:38:03.554Z,29.58
2022-11-12T13:40:30.375Z,34.00
2022-11-12T13:43:19.662Z,33.63
2022-11-12T13:45:58.714Z,34.00
2022-11-12T13:48:33.877Z,34.67
2022-11-12T13:51:12.492Z,34.72
2022-11-12T13:53:39.343Z,32.78
2022-11-12T13:56:06.497Z,32.38
2022-11-12T13:58:35.847Z,32.35
2022-11-12T14:01:05.613Z,32.20
2022-11-12T14:03:47.347Z,33.85
2022-11-12T14:06:32.201Z,30.75
2022-11-12T14:09:31.418Z,35.88
2022-11-12T14:12:15.124Z,39.60
2022-11-12T14:15:10.210Z,39.85
2022-11-12T14:17:55.484Z,37.83
2022-11-12T14:20:36.445Z,38.88
2022-11-12T14:23:14.026Z,36.90
2022-11-12T14:26:07.313Z,42.88
2022-11-12T14:28:35.996Z,40.47
2022-11-12T14:31:04.478Z,41.05
2022-11-12T14:33:32.617Z,42.00
2022-11-12T14:36:14.791Z,38.38
2022-11-12T14:38:46.610Z,36.35
2022-11-12T14:41:25.774Z,36.53
2022-11-12T14:44:11.951Z,37.83
2022-11-12T14:46:49.807Z,41.38
2022-11-12T14:49:34.566Z,32.13
2022-11-12T14:52:36.974Z,37.08
2022-11-12T14:55:12.849Z,38.10
2022-11-12T14:57:40.766Z,34.88
2022-11-12T15:00:24.346Z,33.35
2022-11-12T15:02:59.182Z,35.45
2022-11-12T15:05:30.322Z,32.38
2022-11-12T15:07:58.945Z,34.33
2022-11-12T15:10:30.345Z,36.13
2022-11-12T15:13:30.835Z,36.25
2022-11-12T15:16:04.730Z,34.03
2022-11-12T15:18:33.875Z,30.58
2022-11-12T15:21:26.086Z,33.03
2022-11-12T15:24:15.718Z,33.53
2022-11-12T15:26:45.496Z,39.03
2022-11-12T15:29:15.425Z,40.72
2022-11-12T15:31:49.665Z,40.17
2022-11-12T15:34:27.016Z,40.90
2022-11-12T15:36:55.936Z,45.55
2022-11-12T15:39:24.787Z,48.03
2022-11-12T15:42:19.323Z,45.53
2022-11-12T15:44:46.947Z,43.13
2022-11-12T15:47:22.574Z,45.60
2022-11-12T15:49:53.390Z,46.00
2022-11-12T15:52:20.365Z,43.20
2022-11-12T15:54:47.366Z,46.83
2022-11-12T15:57:20.349Z,43.42
2022-11-12T16:00:06.287Z,49.63
2022-11-12T16:02:34.768Z,53.17
2022-11-12T16:05:01.674Z,53.78
2022-11-12T16:07:28.484Z,50.58
2022-11-12T16:09:55.374Z,53.70
2022-11-12T16:12:22.264Z,50.60
2022-11-12T16:14:49.173Z,46.08
2022-11-12T16:17:17.539Z,47.33
2022-11-12T16:19:44.479Z,50.00
2022-11-12T16:22:14.051Z,50.70
2022-11-12T16:24:42.249Z,57.22
2022-11-12T16:27:14.361Z,61.63
2022-11-12T16:29:41.723Z,60.90
2022-11-12T16:32:14.000Z,54.72
2022-11-12T16:34:40.891Z,60.43
2022-11-12T16:37:12.482Z,56.80
2022-11-12T16:39:39.806Z,61.83
2022-11-12T16:42:08.367Z,63.33
2022-11-12T16:44:35.183Z,61.72
2022-11-12T16:47:06.176Z,65.03
2022-11-12T16:49:38.242Z,71.80
2022-11-12T16:52:05.641Z,75.15
2022-11-12T16:54:32.458Z,82.22
2022-11-12T16:56:59.459Z,80.88
2022-11-12T16:59:26.341Z,79.80
2022-11-12T17:01:53.172Z,73.78
2022-11-12T17:04:20.517Z,87.47
2022-11-12T17:06:47.386Z,85.43
2022-11-12T17:09:16.876Z,95.03
2022-11-12T17:11:45.087Z,106.13
2022-11-12T17:14:12.133Z,105.07
2022-11-12T17:16:38.972Z,113.68
2022-11-12T17:19:05.889Z,108.05
2022-11-12T17:21:32.807Z,110.70
2022-11-12T17:23:59.700Z,111.25
2022-11-12T17:26:26.737Z,100.53
2022-11-12T17:28:59.366Z,95.00
2022-11-12T17:31:28.162Z,86.90
2022-11-12T17:33:55.027Z,79.85
2022-11-12T17:36:24.256Z,82.88
2022-11-12T17:38:58.783Z,82.15
2022-11-12T17:41:28.409Z,88.15
2022-11-12T17:43:56.658Z,75.30
2022-11-12T17:46:24.070Z,77.75
2022-11-12T17:48:51.066Z,73.50
2022-11-12T17:51:20.790Z,74.10
2022-11-12T17:53:48.292Z,68.20
2022-11-12T17:56:17.811Z,62.58
2022-11-12T17:58:47.982Z,61.95
2022-11-12T18:01:21.670Z,62.08
2022-11-12T18:03:50.814Z,65.60
2022-11-12T18:06:24.602Z,70.90
2022-11-12T18:09:00.261Z,68.10
2022-11-12T18:11:30.238Z,64.53
2022-11-12T18:13:57.109Z,62.53
2022-11-12T18:16:26.740Z,64.97
2022-11-12T18:18:57.846Z,64.60
2022-11-12T18:21:26.322Z,61.63
2022-11-12T18:23:53.827Z,70.15
2022-11-12T18:26:21.073Z,67.13
2022-11-12T18:28:52.248Z,66.60
2022-11-12T18:31:20.072Z,64.20
2022-11-12T18:33:47.775Z,55.47
2022-11-12T18:36:19.632Z,57.92
2022-11-12T18:38:48.465Z,56.17
2022-11-12T18:41:16.691Z,67.28
2022-11-12T18:43:43.680Z,57.35
2022-11-12T18:46:11.031Z,56.28
2022-11-12T18:48:40.317Z,57.42
2022-11-12T18:51:13.556Z,60.25
2022-11-12T18:56:13.862Z,54.60
2022-11-12T18:58:41.060Z,58.55
2022-11-12T19:01:16.171Z,59.38
2022-11-12T19:03:43.670Z,52.53
2022-11-12T19:06:12.656Z,51.10
2022-11-12T19:08:40.259Z,48.92
2022-11-12T19:11:09.728Z,51.83
2022-11-12T19:13:37.286Z,47.40
2022-11-12T19:16:14.264Z,50.40
2022-11-12T19:18:42.275Z,51.08
2022-11-12T19:21:20.973Z,53.92
2022-11-12T19:23:52.694Z,53.30
2022-11-12T19:26:21.552Z,51.08
2022-11-12T19:28:48.669Z,54.30
2022-11-12T19:31:18.611Z,55.30
2022-11-12T19:33:47.029Z,54.42
2022-11-12T19:36:17.098Z,57.33
2022-11-12T19:38:44.163Z,50.50
2022-11-12T19:41:18.970Z,50.10
2022-11-12T19:43:47.090Z,42.25
2022-11-12T19:46:14.647Z,38.22
2022-11-12T19:48:42.062Z,43.55
2022-11-12T19:51:10.782Z,46.53
2022-11-12T19:53:44.650Z,44.45
2022-11-12T19:56:14.208Z,53.45
2022-11-12T19:58:45.509Z,54.15
2022-11-12T20:01:14.324Z,52.13
2022-11-12T20:03:41.463Z,51.67
2022-11-12T20:06:11.776Z,51.17
2022-11-12T20:08:39.022Z,53.38
2022-11-12T20:11:06.046Z,47.30
2022-11-12T20:13:33.090Z,47.17
2022-11-12T20:16:05.060Z,47.58
2022-11-12T20:18:31.895Z,53.50
2022-11-12T20:20:58.949Z,48.28
2022-11-12T20:23:26.355Z,53.33
2022-11-12T20:25:54.063Z,50.38
2022-11-12T20:28:20.922Z,50.15
2022-11-12T20:30:47.804Z,48.92
2022-11-12T20:33:14.811Z,49.53
2022-11-12T20:35:42.086Z,49.40
2022-11-12T20:38:08.955Z,44.70
2022-11-12T20:40:35.813Z,46.63
2022-11-12T20:43:02.760Z,44.17
2022-11-12T20:45:29.575Z,44.03
2022-11-12T20:47:56.758Z,47.55
2022-11-12T20:50:24.057Z,47.45
2022-11-12T20:52:51.005Z,49.63
2022-11-12T20:55:18.638Z,44.72
2022-11-12T20:57:46.340Z,46.15
2022-11-12T21:00:17.727Z,40.85
2022-11-12T21:02:47.060Z,45.30
2022-11-12T21:05:13.993Z,42.72
2022-11-12T21:07:40.829Z,43.42
2022-11-12T21:10:08.390Z,44.42
2022-11-12T21:12:36.021Z,42.47
2022-11-12T21:15:03.062Z,47.90
2022-11-12T21:17:29.909Z,51.28
2022-11-12T21:19:56.763Z,43.60
2022-11-12T21:22:23.599Z,47.92
2022-11-12T21:24:50.480Z,47.00
2022-11-12T21:27:17.321Z,52.22
2022-11-12T21:29:44.136Z,54.38
2022-11-12T21:32:11.135Z,51.88
2022-11-12T21:34:38.221Z,46.30
2022-11-12T21:37:05.037Z,50.72
2022-11-12T21:39:32.256Z,45.90
2022-11-12T21:41:59.149Z,49.28
2022-11-12T21:44:25.992Z,45.38
2022-11-12T21:46:52.899Z,45.63
2022-11-12T21:49:19.796Z,52.92
2022-11-12T21:51:46.774Z,53.00
2022-11-12T21:54:14.878Z,45.80
2022-11-12T21:56:42.112Z,46.58
2022-11-12T21:59:09.001Z,45.47
2022-11-12T22:01:36.039Z,52.80
2022-11-12T22:04:07.104Z,49.13
2022-11-12T22:06:37.856Z,55.03
2022-11-12T22:09:05.462Z,46.35
2022-11-12T22:11:32.936Z,47.63
2022-11-12T22:13:59.944Z,53.90
2022-11-12T22:16:29.592Z,51.30
2022-11-12T22:18:58.274Z,48.17
2022-11-12T22:21:27.881Z,52.42
2022-11-12T22:23:56.246Z,50.55
2022-11-12T22:26:26.669Z,47.70
2022-11-12T22:28:55.456Z,50.22
2022-11-12T22:31:28.659Z,51.13
2022-11-12T22:36:25.728Z,45.70
2022-11-12T22:38:53.921Z,49.70
2022-11-12T22:41:26.267Z,47.95
2022-11-12T22:43:55.648Z,48.03
2022-11-12T22:46:25.229Z,52.97
2022-11-12T22:48:52.287Z,49.47
2022-11-12T22:51:21.841Z,54.15
2022-11-12T22:53:54.044Z,47.70
2022-11-12T22:56:21.006Z,50.72
2022-11-12T22:58:48.230Z,44.75
2022-11-12T23:01:35.128Z,51.38
2022-11-12T23:04:04.169Z,52.15
2022-11-12T23:06:31.639Z,54.15
2022-11-12T23:08:59.559Z,47.28
2022-11-12T23:11:27.068Z,49.83
2022-11-12T23:13:54.970Z,52.40
2022-11-12T23:16:27.737Z,51.20
2022-11-12T23:18:55.059Z,53.10
2022-11-12T23:21:24.766Z,54.95
2022-11-12T23:23:51.795Z,50.97
2022-11-12T23:26:24.499Z,54.60
2022-11-12T23:28:51.624Z,54.15
2022-11-12T23:31:21.833Z,49.55
2022-11-12T23:33:51.180Z,51.92
2022-11-12T23:36:18.898Z,49.17
2022-11-12T23:38:46.374Z,54.35
2022-11-12T23:41:16.322Z,48.83
2022-11-12T23:43:43.524Z,55.33
2022-11-12T23:46:11.085Z,58.03
2022-11-12T23:48:38.070Z,50.60
2022-11-12T23:51:13.426Z,54.78
2022-11-12T23:53:40.771Z,49.00
2022-11-12T23:56:10.553Z,56.85
2022-11-12T23:58:39.096Z,53.78
